sensor_id;sensor_type;location;lat;lon;timestamp;P1;durP1;ratioP1;P2;durP2;ratioP2
71637;SDS011;59485;43.542;-5.676;2022-12-10T00:01:45;7.32;;;2.70;;
71637;SDS011;59485;43.542;-5.676;2022-12-10T00:04:11;9.05;;;3.38;;
71637;SDS011;59485;43.542;-5.676;2022-12-10T00:06:38;10.60;;;2.53;;
71637;SDS011;59485;43.542;-5.676;2022-12-10T00:09:05;7.68;;;2.70;;
71637;SDS011;59485;43.542;-5.676;2022-12-10T00:11:34;9.43;;;2.60;;
71637;SDS011;59485;43.542;-5.676;2022-12-10T00:14:00;9.47;;;1.60;;
71637;SDS011;59485;43.542;-5.676;2022-12-10T00:16:27;13.88;;;2.28;;
71637;SDS011;59485;43.542;-5.676;2022-12-10T00:18:56;11.45;;;3.00;;
71637;SDS011;59485;43.542;-5.676;2022-12-10T00:21:22;11.20;;;3.67;;
71637;SDS011;59485;43.542;-5.676;2022-12-10T00:23:50;10.17;;;3.93;;
71637;SDS011;59485;43.542;-5.676;2022-12-10T00:26:16;8.65;;;3.47;;
71637;SDS011;59485;43.542;-5.676;2022-12-10T00:28:44;7.07;;;2.63;;
71637;SDS011;59485;43.542;-5.676;2022-12-10T00:31:13;11.43;;;3.57;;
71637;SDS011;59485;43.542;-5.676;2022-12-10T00:33:41;10.32;;;3.53;;
71637;SDS011;59485;43.542;-5.676;2022-12-10T00:36:11;17.83;;;3.60;;
71637;SDS011;59485;43.542;-5.676;2022-12-10T00:38:41;8.98;;;2.85;;
71637;SDS011;59485;43.542;-5.676;2022-12-10T00:41:07;9.82;;;2.78;;
71637;SDS011;59485;43.542;-5.676;2022-12-10T00:43:33;10.00;;;2.40;;
71637;SDS011;59485;43.542;-5.676;2022-12-10T00:46:00;9.85;;;2.95;;
71637;SDS011;59485;43.542;-5.676;2022-12-10T00:48:26;8.75;;;3.10;;
71637;SDS011;59485;43.542;-5.676;2022-12-10T00:51:25;11.60;;;3.03;;
71637;SDS011;59485;43.542;-5.676;2022-12-10T00:53:47;11.30;;;2.90;;
71637;SDS011;59485;43.542;-5.676;2022-12-10T00:56:15;7.47;;;2.50;;
71637;SDS011;59485;43.542;-5.676;2022-12-10T00:58:42;11.38;;;2.90;;
71637;SDS011;59485;43.542;-5.676;2022-12-10T01:03:45;8.77;;;2.65;;
71637;SDS011;59485;43.542;-5.676;2022-12-10T01:08:37;8.53;;;2.80;;
71637;SDS011;59485;43.542;-5.676;2022-12-10T01:11:04;9.95;;;2.60;;
71637;SDS011;59485;43.542;-5.676;2022-12-10T01:13:29;11.38;;;3.30;;
71637;SDS011;59485;43.542;-5.676;2022-12-10T01:15:55;10.97;;;3.50;;
71637;SDS011;59485;43.542;-5.676;2022-12-10T01:18:20;12.07;;;4.50;;
71637;SDS011;59485;43.542;-5.676;2022-12-10T01:20:46;9.63;;;2.67;;
71637;SDS011;59485;43.542;-5.676;2022-12-10T01:23:11;10.60;;;3.40;;
71637;SDS011;59485;43.542;-5.676;2022-12-10T01:25:37;10.47;;;3.27;;
71637;SDS011;59485;43.542;-5.676;2022-12-10T01:28:02;9.37;;;2.93;;
71637;SDS011;59485;43.542;-5.676;2022-12-10T01:30:28;9.70;;;3.23;;
71637;SDS011;59485;43.542;-5.676;2022-12-10T01:32:53;9.47;;;3.20;;
71637;SDS011;59485;43.542;-5.676;2022-12-10T01:35:19;9.23;;;3.17;;
71637;SDS011;59485;43.542;-5.676;2022-12-10T01:37:44;8.50;;;2.30;;
71637;SDS011;59485;43.542;-5.676;2022-12-10T01:40:10;9.03;;;2.10;;
71637;SDS011;59485;43.542;-5.676;2022-12-10T01:42:36;12.53;;;2.90;;
71637;SDS011;59485;43.542;-5.676;2022-12-10T01:45:04;10.55;;;3.03;;
71637;SDS011;59485;43.542;-5.676;2022-12-10T01:47:33;9.40;;;3.00;;
71637;SDS011;59485;43.542;-5.676;2022-12-10T01:49:58;11.48;;;2.50;;
71637;SDS011;59485;43.542;-5.676;2022-12-10T01:52:25;7.30;;;2.50;;
71637;SDS011;59485;43.542;-5.676;2022-12-10T01:54:51;15.87;;;3.13;;
71637;SDS011;59485;43.542;-5.676;2022-12-10T01:57:19;7.40;;;2.30;;
71637;SDS011;59485;43.542;-5.676;2022-12-10T01:59:49;7.53;;;2.30;;
71637;SDS011;59485;43.542;-5.676;2022-12-10T02:03:24;11.35;;;3.25;;
71637;SDS011;59485;43.542;-5.676;2022-12-10T02:08:23;9.10;;;2.25;;
71637;SDS011;59485;43.542;-5.676;2022-12-10T02:14:02;11.50;;;2.50;;
71637;SDS011;59485;43.542;-5.676;2022-12-10T02:16:38;8.98;;;3.10;;
71637;SDS011;59485;43.542;-5.676;2022-12-10T02:19:13;7.23;;;2.27;;
71637;SDS011;59485;43.542;-5.676;2022-12-10T02:21:47;9.35;;;2.20;;
71637;SDS011;59485;43.542;-5.676;2022-12-10T02:24:16;8.90;;;2.80;;
71637;SDS011;59485;43.542;-5.676;2022-12-10T02:29:37;9.13;;;2.30;;
71637;SDS011;59485;43.542;-5.676;2022-12-10T02:32:14;10.33;;;2.27;;
71637;SDS011;59485;43.542;-5.676;2022-12-10T02:34:45;9.68;;;1.85;;
71637;SDS011;59485;43.542;-5.676;2022-12-10T02:37:17;6.88;;;2.45;;
71637;SDS011;59485;43.542;-5.676;2022-12-10T02:39:56;9.00;;;2.50;;
71637;SDS011;59485;43.542;-5.676;2022-12-10T02:42:24;7.90;;;2.50;;
71637;SDS011;59485;43.542;-5.676;2022-12-10T02:44:52;7.30;;;2.40;;
71637;SDS011;59485;43.542;-5.676;2022-12-10T02:47:18;13.30;;;2.63;;
71637;SDS011;59485;43.542;-5.676;2022-12-10T02:49:45;8.35;;;3.05;;
71637;SDS011;59485;43.542;-5.676;2022-12-10T02:52:15;8.10;;;2.13;;
71637;SDS011;59485;43.542;-5.676;2022-12-10T02:54:44;10.48;;;2.10;;
71637;SDS011;59485;43.542;-5.676;2022-12-10T03:02:25;8.10;;;2.27;;
71637;SDS011;59485;43.542;-5.676;2022-12-10T03:08:22;11.20;;;1.95;;
71637;SDS011;59485;43.542;-5.676;2022-12-10T03:10:59;8.05;;;2.10;;
71637;SDS011;59485;43.542;-5.676;2022-12-10T03:13:37;10.32;;;2.78;;
71637;SDS011;59485;43.542;-5.676;2022-12-10T03:16:25;6.63;;;2.10;;
71637;SDS011;59485;43.542;-5.676;2022-12-10T03:19:01;8.07;;;1.63;;
71637;SDS011;59485;43.542;-5.676;2022-12-10T03:21:30;10.43;;;2.35;;
71637;SDS011;59485;43.542;-5.676;2022-12-10T03:23:59;10.82;;;2.40;;
71637;SDS011;59485;43.542;-5.676;2022-12-10T03:26:25;8.13;;;2.30;;
71637;SDS011;59485;43.542;-5.676;2022-12-10T03:28:55;8.23;;;2.50;;
71637;SDS011;59485;43.542;-5.676;2022-12-10T03:31:26;11.38;;;2.67;;
71637;SDS011;59485;43.542;-5.676;2022-12-10T03:33:54;8.75;;;2.72;;
71637;SDS011;59485;43.542;-5.676;2022-12-10T03:36:20;7.57;;;1.92;;
71637;SDS011;59485;43.542;-5.676;2022-12-10T03:38:46;7.63;;;2.00;;
71637;SDS011;59485;43.542;-5.676;2022-12-10T03:41:12;10.03;;;2.67;;
71637;SDS011;59485;43.542;-5.676;2022-12-10T03:43:54;9.40;;;1.80;;
71637;SDS011;59485;43.542;-5.676;2022-12-10T03:46:22;9.67;;;2.20;;
71637;SDS011;59485;43.542;-5.676;2022-12-10T03:48:49;9.13;;;1.88;;
71637;SDS011;59485;43.542;-5.676;2022-12-10T03:51:15;8.13;;;2.38;;
71637;SDS011;59485;43.542;-5.676;2022-12-10T03:53:42;6.93;;;2.10;;
71637;SDS011;59485;43.542;-5.676;2022-12-10T03:56:07;8.30;;;1.92;;
71637;SDS011;59485;43.542;-5.676;2022-12-10T03:58:33;9.27;;;2.20;;
71637;SDS011;59485;43.542;-5.676;2022-12-10T04:00:59;11.63;;;2.60;;
71637;SDS011;59485;43.542;-5.676;2022-12-10T04:03:24;11.02;;;2.30;;
71637;SDS011;59485;43.542;-5.676;2022-12-10T04:05:50;7.97;;;2.50;;
71637;SDS011;59485;43.542;-5.676;2022-12-10T04:08:15;9.50;;;2.70;;
71637;SDS011;59485;43.542;-5.676;2022-12-10T04:10:41;10.33;;;3.03;;
71637;SDS011;59485;43.542;-5.676;2022-12-10T04:13:06;11.50;;;2.97;;
71637;SDS011;59485;43.542;-5.676;2022-12-10T04:16:10;10.07;;;2.72;;
71637;SDS011;59485;43.542;-5.676;2022-12-10T04:18:58;9.70;;;2.75;;
71637;SDS011;59485;43.542;-5.676;2022-12-10T04:21:30;8.23;;;3.15;;
71637;SDS011;59485;43.542;-5.676;2022-12-10T04:24:15;9.30;;;3.17;;
71637;SDS011;59485;43.542;-5.676;2022-12-10T04:27:02;12.85;;;3.25;;
71637;SDS011;59485;43.542;-5.676;2022-12-10T04:29:31;9.85;;;3.35;;
71637;SDS011;59485;43.542;-5.676;2022-12-10T04:31:58;10.47;;;2.73;;
71637;SDS011;59485;43.542;-5.676;2022-12-10T04:34:24;8.13;;;2.70;;
71637;SDS011;59485;43.542;-5.676;2022-12-10T04:36:50;8.52;;;3.00;;
71637;SDS011;59485;43.542;-5.676;2022-12-10T04:39:16;10.20;;;3.10;;
71637;SDS011;59485;43.542;-5.676;2022-12-10T04:41:43;8.43;;;3.33;;
71637;SDS011;59485;43.542;-5.676;2022-12-10T04:44:10;9.25;;;3.55;;
71637;SDS011;59485;43.542;-5.676;2022-12-10T04:46:36;10.48;;;4.15;;
71637;SDS011;59485;43.542;-5.676;2022-12-10T04:49:02;9.63;;;3.33;;
71637;SDS011;59485;43.542;-5.676;2022-12-10T04:51:29;9.10;;;3.10;;
71637;SDS011;59485;43.542;-5.676;2022-12-10T04:53:55;10.90;;;3.15;;
71637;SDS011;59485;43.542;-5.676;2022-12-10T04:56:20;8.97;;;2.60;;
71637;SDS011;59485;43.542;-5.676;2022-12-10T04:58:46;6.43;;;2.23;;
71637;SDS011;59485;43.542;-5.676;2022-12-10T05:01:11;8.57;;;2.63;;
71637;SDS011;59485;43.542;-5.676;2022-12-10T05:03:37;5.93;;;2.60;;
71637;SDS011;59485;43.542;-5.676;2022-12-10T05:06:11;8.85;;;2.63;;
71637;SDS011;59485;43.542;-5.676;2022-12-10T05:08:38;8.88;;;2.63;;
71637;SDS011;59485;43.542;-5.676;2022-12-10T05:11:15;7.30;;;3.13;;
71637;SDS011;59485;43.542;-5.676;2022-12-10T05:13:42;8.57;;;3.38;;
71637;SDS011;59485;43.542;-5.676;2022-12-10T05:16:09;12.05;;;4.93;;
71637;SDS011;59485;43.542;-5.676;2022-12-10T05:18:37;17.80;;;5.78;;
71637;SDS011;59485;43.542;-5.676;2022-12-10T05:21:04;15.60;;;6.93;;
71637;SDS011;59485;43.542;-5.676;2022-12-10T05:23:32;13.27;;;7.03;;
71637;SDS011;59485;43.542;-5.676;2022-12-10T05:26:08;11.48;;;5.78;;
71637;SDS011;59485;43.542;-5.676;2022-12-10T05:28:36;14.38;;;5.03;;
71637;SDS011;59485;43.542;-5.676;2022-12-10T05:31:03;15.55;;;6.20;;
71637;SDS011;59485;43.542;-5.676;2022-12-10T05:33:29;13.70;;;6.20;;
71637;SDS011;59485;43.542;-5.676;2022-12-10T05:35:56;15.37;;;5.97;;
71637;SDS011;59485;43.542;-5.676;2022-12-10T05:38:25;18.13;;;6.50;;
71637;SDS011;59485;43.542;-5.676;2022-12-10T05:40:51;17.13;;;7.25;;
71637;SDS011;59485;43.542;-5.676;2022-12-10T05:43:17;27.67;;;8.27;;
71637;SDS011;59485;43.542;-5.676;2022-12-10T05:45:42;22.90;;;9.50;;
71637;SDS011;59485;43.542;-5.676;2022-12-10T05:48:09;26.47;;;9.83;;
71637;SDS011;59485;43.542;-5.676;2022-12-10T05:50:35;20.13;;;8.65;;
71637;SDS011;59485;43.542;-5.676;2022-12-10T05:53:01;21.27;;;9.75;;
71637;SDS011;59485;43.542;-5.676;2022-12-10T05:55:26;18.97;;;9.30;;
71637;SDS011;59485;43.542;-5.676;2022-12-10T05:57:54;22.30;;;9.33;;
71637;SDS011;59485;43.542;-5.676;2022-12-10T06:00:20;21.17;;;9.60;;
71637;SDS011;59485;43.542;-5.676;2022-12-10T06:02:48;17.50;;;7.60;;
71637;SDS011;59485;43.542;-5.676;2022-12-10T06:05:16;18.58;;;8.35;;
71637;SDS011;59485;43.542;-5.676;2022-12-10T06:07:42;17.10;;;7.30;;
71637;SDS011;59485;43.542;-5.676;2022-12-10T06:10:08;19.42;;;8.18;;
71637;SDS011;59485;43.542;-5.676;2022-12-10T06:12:34;19.85;;;8.18;;
71637;SDS011;59485;43.542;-5.676;2022-12-10T06:14:59;21.60;;;8.13;;
71637;SDS011;59485;43.542;-5.676;2022-12-10T06:17:25;21.87;;;9.63;;
71637;SDS011;59485;43.542;-5.676;2022-12-10T06:19:50;19.13;;;6.97;;
71637;SDS011;59485;43.542;-5.676;2022-12-10T06:22:16;13.57;;;6.63;;
71637;SDS011;59485;43.542;-5.676;2022-12-10T06:24:42;21.17;;;8.53;;
71637;SDS011;59485;43.542;-5.676;2022-12-10T06:27:07;16.42;;;7.57;;
71637;SDS011;59485;43.542;-5.676;2022-12-10T06:29:33;15.07;;;6.53;;
71637;SDS011;59485;43.542;-5.676;2022-12-10T06:31:58;20.60;;;8.20;;
71637;SDS011;59485;43.542;-5.676;2022-12-10T06:34:24;14.23;;;6.70;;
71637;SDS011;59485;43.542;-5.676;2022-12-10T06:36:49;15.70;;;6.83;;
71637;SDS011;59485;43.542;-5.676;2022-12-10T06:39:15;19.03;;;6.77;;
71637;SDS011;59485;43.542;-5.676;2022-12-10T06:41:40;18.08;;;7.78;;
71637;SDS011;59485;43.542;-5.676;2022-12-10T06:44:09;21.77;;;11.20;;
71637;SDS011;59485;43.542;-5.676;2022-12-10T06:46:35;23.17;;;11.38;;
71637;SDS011;59485;43.542;-5.676;2022-12-10T06:49:01;23.65;;;12.32;;
71637;SDS011;59485;43.542;-5.676;2022-12-10T06:51:27;25.00;;;13.70;;
71637;SDS011;59485;43.542;-5.676;2022-12-10T06:53:53;25.17;;;13.50;;
71637;SDS011;59485;43.542;-5.676;2022-12-10T06:56:19;22.88;;;14.88;;
71637;SDS011;59485;43.542;-5.676;2022-12-10T06:58:45;22.07;;;11.50;;
71637;SDS011;59485;43.542;-5.676;2022-12-10T07:01:13;20.25;;;12.25;;
71637;SDS011;59485;43.542;-5.676;2022-12-10T07:03:40;24.95;;;13.02;;
71637;SDS011;59485;43.542;-5.676;2022-12-10T07:06:10;21.02;;;12.10;;
71637;SDS011;59485;43.542;-5.676;2022-12-10T07:08:36;20.73;;;11.00;;
71637;SDS011;59485;43.542;-5.676;2022-12-10T07:11:06;30.42;;;15.30;;
71637;SDS011;59485;43.542;-5.676;2022-12-10T07:13:33;30.67;;;15.60;;
71637;SDS011;59485;43.542;-5.676;2022-12-10T07:15:59;31.45;;;17.65;;
71637;SDS011;59485;43.542;-5.676;2022-12-10T07:18:25;28.67;;;15.83;;
71637;SDS011;59485;43.542;-5.676;2022-12-10T07:20:50;30.77;;;17.48;;
71637;SDS011;59485;43.542;-5.676;2022-12-10T07:23:16;29.97;;;16.13;;
71637;SDS011;59485;43.542;-5.676;2022-12-10T07:25:41;28.70;;;14.23;;
71637;SDS011;59485;43.542;-5.676;2022-12-10T07:28:07;28.00;;;15.17;;
71637;SDS011;59485;43.542;-5.676;2022-12-10T07:30:33;26.08;;;14.43;;
71637;SDS011;59485;43.542;-5.676;2022-12-10T07:32:58;24.23;;;12.97;;
71637;SDS011;59485;43.542;-5.676;2022-12-10T07:35:24;29.45;;;14.98;;
71637;SDS011;59485;43.542;-5.676;2022-12-10T07:37:50;34.30;;;18.42;;
71637;SDS011;59485;43.542;-5.676;2022-12-10T07:40:15;75.17;;;41.47;;
71637;SDS011;59485;43.542;-5.676;2022-12-10T07:42:41;74.93;;;45.53;;
71637;SDS011;59485;43.542;-5.676;2022-12-10T07:45:09;93.07;;;57.35;;
71637;SDS011;59485;43.542;-5.676;2022-12-10T07:47:36;78.57;;;51.28;;
71637;SDS011;59485;43.542;-5.676;2022-12-10T07:50:03;50.53;;;33.55;;
71637;SDS011;59485;43.542;-5.676;2022-12-10T07:52:29;24.53;;;14.13;;
71637;SDS011;59485;43.542;-5.676;2022-12-10T07:54:54;13.52;;;6.25;;
71637;SDS011;59485;43.542;-5.676;2022-12-10T07:57:20;9.47;;;4.13;;
71637;SDS011;59485;43.542;-5.676;2022-12-10T07:59:46;11.25;;;3.63;;
71637;SDS011;59485;43.542;-5.676;2022-12-10T08:02:12;9.77;;;3.50;;
71637;SDS011;59485;43.542;-5.676;2022-12-10T08:04:37;9.75;;;3.40;;
71637;SDS011;59485;43.542;-5.676;2022-12-10T08:07:03;10.37;;;3.37;;
71637;SDS011;59485;43.542;-5.676;2022-12-10T08:09:28;8.60;;;3.30;;
71637;SDS011;59485;43.542;-5.676;2022-12-10T08:11:54;8.80;;;3.30;;
71637;SDS011;59485;43.542;-5.676;2022-12-10T08:14:19;7.10;;;3.53;;
71637;SDS011;59485;43.542;-5.676;2022-12-10T08:16:45;11.20;;;3.97;;
71637;SDS011;59485;43.542;-5.676;2022-12-10T08:19:10;10.27;;;4.93;;
71637;SDS011;59485;43.542;-5.676;2022-12-10T08:21:36;13.37;;;6.37;;
71637;SDS011;59485;43.542;-5.676;2022-12-10T08:24:02;17.48;;;10.50;;
71637;SDS011;59485;43.542;-5.676;2022-12-10T08:26:28;18.40;;;8.03;;
71637;SDS011;59485;43.542;-5.676;2022-12-10T08:28:56;15.73;;;7.75;;
71637;SDS011;59485;43.542;-5.676;2022-12-10T08:31:22;15.30;;;6.93;;
71637;SDS011;59485;43.542;-5.676;2022-12-10T08:33:49;12.20;;;7.00;;
71637;SDS011;59485;43.542;-5.676;2022-12-10T08:36:15;15.50;;;7.03;;
71637;SDS011;59485;43.542;-5.676;2022-12-10T08:38:42;14.55;;;6.95;;
71637;SDS011;59485;43.542;-5.676;2022-12-10T08:41:09;13.73;;;6.43;;
71637;SDS011;59485;43.542;-5.676;2022-12-10T08:43:40;16.75;;;7.25;;
71637;SDS011;59485;43.542;-5.676;2022-12-10T08:46:06;12.67;;;6.93;;
71637;SDS011;59485;43.542;-5.676;2022-12-10T08:48:32;16.27;;;6.83;;
71637;SDS011;59485;43.542;-5.676;2022-12-10T08:50:59;19.13;;;7.30;;
71637;SDS011;59485;43.542;-5.676;2022-12-10T08:53:24;16.60;;;7.43;;
71637;SDS011;59485;43.542;-5.676;2022-12-10T08:55:53;11.98;;;6.00;;
71637;SDS011;59485;43.542;-5.676;2022-12-10T08:58:19;12.55;;;5.07;;
71637;SDS011;59485;43.542;-5.676;2022-12-10T09:00:46;12.03;;;4.63;;
71637;SDS011;59485;43.542;-5.676;2022-12-10T09:03:13;11.30;;;4.78;;
71637;SDS011;59485;43.542;-5.676;2022-12-10T09:05:39;12.82;;;4.90;;
71637;SDS011;59485;43.542;-5.676;2022-12-10T09:08:05;10.00;;;5.10;;
71637;SDS011;59485;43.542;-5.676;2022-12-10T09:10:31;9.47;;;4.00;;
71637;SDS011;59485;43.542;-5.676;2022-12-10T09:12:57;11.18;;;4.47;;
71637;SDS011;59485;43.542;-5.676;2022-12-10T09:15:22;9.70;;;3.80;;
71637;SDS011;59485;43.542;-5.676;2022-12-10T09:17:48;7.67;;;3.47;;
71637;SDS011;59485;43.542;-5.676;2022-12-10T09:20:13;10.55;;;4.00;;
71637;SDS011;59485;43.542;-5.676;2022-12-10T09:22:39;10.07;;;4.70;;
71637;SDS011;59485;43.542;-5.676;2022-12-10T09:25:05;10.50;;;3.35;;
71637;SDS011;59485;43.542;-5.676;2022-12-10T09:27:32;10.20;;;3.30;;
71637;SDS011;59485;43.542;-5.676;2022-12-10T09:29:58;8.90;;;3.72;;
71637;SDS011;59485;43.542;-5.676;2022-12-10T09:32:24;11.82;;;3.28;;
71637;SDS011;59485;43.542;-5.676;2022-12-10T09:34:52;10.40;;;2.77;;
71637;SDS011;59485;43.542;-5.676;2022-12-10T09:37:18;10.60;;;3.25;;
71637;SDS011;59485;43.542;-5.676;2022-12-10T09:39:44;10.77;;;3.77;;
71637;SDS011;59485;43.542;-5.676;2022-12-10T09:51:10;7.27;;;3.30;;
71637;SDS011;59485;43.542;-5.676;2022-12-10T09:53:39;11.38;;;3.60;;
71637;SDS011;59485;43.542;-5.676;2022-12-10T09:56:10;10.77;;;3.63;;
71637;SDS011;59485;43.542;-5.676;2022-12-10T09:58:45;10.82;;;4.43;;
71637;SDS011;59485;43.542;-5.676;2022-12-10T10:01:12;8.73;;;3.90;;
71637;SDS011;59485;43.542;-5.676;2022-12-10T10:03:41;7.82;;;3.55;;
71637;SDS011;59485;43.542;-5.676;2022-12-10T10:06:12;8.35;;;3.30;;
71637;SDS011;59485;43.542;-5.676;2022-12-10T10:08:57;11.10;;;3.10;;
71637;SDS011;59485;43.542;-5.676;2022-12-10T10:11:28;8.70;;;2.73;;
71637;SDS011;59485;43.542;-5.676;2022-12-10T10:14:00;6.50;;;2.90;;
71637;SDS011;59485;43.542;-5.676;2022-12-10T10:16:33;8.88;;;3.08;;
71637;SDS011;59485;43.542;-5.676;2022-12-10T10:19:05;14.82;;;4.18;;
71637;SDS011;59485;43.542;-5.676;2022-12-10T10:21:40;11.43;;;3.78;;
71637;SDS011;59485;43.542;-5.676;2022-12-10T10:24:11;11.60;;;3.13;;
71637;SDS011;59485;43.542;-5.676;2022-12-10T10:26:39;12.35;;;3.65;;
71637;SDS011;59485;43.542;-5.676;2022-12-10T10:29:06;9.82;;;3.60;;
71637;SDS011;59485;43.542;-5.676;2022-12-10T10:31:35;9.67;;;3.97;;
71637;SDS011;59485;43.542;-5.676;2022-12-10T10:34:05;9.77;;;3.03;;
71637;SDS011;59485;43.542;-5.676;2022-12-10T10:36:38;13.13;;;3.75;;
71637;SDS011;59485;43.542;-5.676;2022-12-10T10:39:37;9.95;;;3.28;;
71637;SDS011;59485;43.542;-5.676;2022-12-10T10:41:58;5.90;;;1.90;;
71637;SDS011;59485;43.542;-5.676;2022-12-10T10:44:26;4.97;;;1.80;;
71637;SDS011;59485;43.542;-5.676;2022-12-10T10:46:54;4.07;;;1.65;;
71637;SDS011;59485;43.542;-5.676;2022-12-10T10:51:52;8.70;;;2.67;;
71637;SDS011;59485;43.542;-5.676;2022-12-10T10:57:24;7.97;;;3.77;;
71637;SDS011;59485;43.542;-5.676;2022-12-10T10:59:55;9.85;;;5.65;;
71637;SDS011;59485;43.542;-5.676;2022-12-10T11:02:40;18.88;;;7.63;;
71637;SDS011;59485;43.542;-5.676;2022-12-10T11:05:08;11.10;;;4.15;;
71637;SDS011;59485;43.542;-5.676;2022-12-10T11:07:40;12.23;;;7.13;;
71637;SDS011;59485;43.542;-5.676;2022-12-10T11:10:17;18.97;;;9.87;;
71637;SDS011;59485;43.542;-5.676;2022-12-10T11:12:43;24.10;;;9.88;;
71637;SDS011;59485;43.542;-5.676;2022-12-10T11:17:50;9.20;;;2.60;;
71637;SDS011;59485;43.542;-5.676;2022-12-10T11:20:19;9.45;;;2.40;;
71637;SDS011;59485;43.542;-5.676;2022-12-10T11:22:51;10.17;;;3.80;;
71637;SDS011;59485;43.542;-5.676;2022-12-10T11:25:20;6.50;;;2.40;;
71637;SDS011;59485;43.542;-5.676;2022-12-10T11:30:31;11.45;;;2.83;;
71637;SDS011;59485;43.542;-5.676;2022-12-10T11:38:58;7.95;;;1.92;;
71637;SDS011;59485;43.542;-5.676;2022-12-10T11:52:33;6.13;;;1.88;;
71637;SDS011;59485;43.542;-5.676;2022-12-10T12:01:01;7.75;;;1.90;;
71637;SDS011;59485;43.542;-5.676;2022-12-10T12:03:59;6.20;;;2.47;;
71637;SDS011;59485;43.542;-5.676;2022-12-10T12:09:16;8.97;;;2.90;;
71637;SDS011;59485;43.542;-5.676;2022-12-10T12:17:45;6.47;;;2.40;;
71637;SDS011;59485;43.542;-5.676;2022-12-10T12:20:25;7.97;;;2.03;;
71637;SDS011;59485;43.542;-5.676;2022-12-10T12:25:53;5.90;;;1.35;;
71637;SDS011;59485;43.542;-5.676;2022-12-10T12:28:24;8.48;;;1.90;;
71637;SDS011;59485;43.542;-5.676;2022-12-10T12:31:01;7.18;;;1.65;;
71637;SDS011;59485;43.542;-5.676;2022-12-10T12:36:16;7.10;;;1.30;;
71637;SDS011;59485;43.542;-5.676;2022-12-10T12:38:46;5.95;;;1.50;;
71637;SDS011;59485;43.542;-5.676;2022-12-10T12:41:30;4.28;;;1.40;;
71637;SDS011;59485;43.542;-5.676;2022-12-10T12:44:04;5.57;;;1.38;;
71637;SDS011;59485;43.542;-5.676;2022-12-10T12:46:42;7.07;;;1.83;;
71637;SDS011;59485;43.542;-5.676;2022-12-10T12:51:56;5.90;;;1.00;;
71637;SDS011;59485;43.542;-5.676;2022-12-10T12:54:24;5.07;;;1.52;;
71637;SDS011;59485;43.542;-5.676;2022-12-10T12:56:55;4.80;;;1.10;;
71637;SDS011;59485;43.542;-5.676;2022-12-10T13:02:06;5.03;;;1.38;;
71637;SDS011;59485;43.542;-5.676;2022-12-10T13:04:32;5.53;;;1.35;;
71637;SDS011;59485;43.542;-5.676;2022-12-10T13:18:00;4.47;;;1.27;;
71637;SDS011;59485;43.542;-5.676;2022-12-10T13:28:29;4.07;;;1.13;;
71637;SDS011;59485;43.542;-5.676;2022-12-10T13:31:37;5.03;;;1.48;;
71637;SDS011;59485;43.542;-5.676;2022-12-10T13:36:29;4.10;;;1.10;;
71637;SDS011;59485;43.542;-5.676;2022-12-10T13:39:31;6.15;;;1.77;;
71637;SDS011;59485;43.542;-5.676;2022-12-10T13:44:58;4.22;;;1.20;;
71637;SDS011;59485;43.542;-5.676;2022-12-10T13:47:49;4.70;;;1.00;;
71637;SDS011;59485;43.542;-5.676;2022-12-10T13:50:29;7.20;;;1.48;;
71637;SDS011;59485;43.542;-5.676;2022-12-10T13:55:55;5.03;;;1.50;;
71637;SDS011;59485;43.542;-5.676;2022-12-10T14:04:37;4.63;;;1.10;;
71637;SDS011;59485;43.542;-5.676;2022-12-10T14:06:46;6.63;;;1.20;;
71637;SDS011;59485;43.542;-5.676;2022-12-10T14:09:23;4.68;;;1.30;;
71637;SDS011;59485;43.542;-5.676;2022-12-10T14:14:33;8.37;;;1.10;;
71637;SDS011;59485;43.542;-5.676;2022-12-10T14:17:06;16.00;;;5.53;;
71637;SDS011;59485;43.542;-5.676;2022-12-10T14:19:37;7.18;;;1.77;;
71637;SDS011;59485;43.542;-5.676;2022-12-10T14:22:07;9.50;;;3.50;;
71637;SDS011;59485;43.542;-5.676;2022-12-10T14:24:40;8.60;;;2.28;;
71637;SDS011;59485;43.542;-5.676;2022-12-10T14:30:00;5.47;;;1.50;;
71637;SDS011;59485;43.542;-5.676;2022-12-10T14:32:32;6.80;;;1.42;;
71637;SDS011;59485;43.542;-5.676;2022-12-10T14:34:59;5.10;;;1.13;;
71637;SDS011;59485;43.542;-5.676;2022-12-10T14:37:27;6.60;;;1.35;;
71637;SDS011;59485;43.542;-5.676;2022-12-10T14:39:56;7.03;;;1.50;;
71637;SDS011;59485;43.542;-5.676;2022-12-10T14:42:22;4.40;;;1.30;;
71637;SDS011;59485;43.542;-5.676;2022-12-10T14:44:54;5.63;;;1.02;;
71637;SDS011;59485;43.542;-5.676;2022-12-10T14:47:23;5.50;;;0.90;;
71637;SDS011;59485;43.542;-5.676;2022-12-10T14:49:50;5.47;;;1.30;;
71637;SDS011;59485;43.542;-5.676;2022-12-10T14:52:20;6.20;;;1.20;;
71637;SDS011;59485;43.542;-5.676;2022-12-10T14:54:47;5.90;;;0.75;;
71637;SDS011;59485;43.542;-5.676;2022-12-10T14:57:17;9.13;;;1.20;;
71637;SDS011;59485;43.542;-5.676;2022-12-10T14:59:55;6.97;;;1.20;;
71637;SDS011;59485;43.542;-5.676;2022-12-10T15:02:36;6.30;;;1.08;;
71637;SDS011;59485;43.542;-5.676;2022-12-10T15:05:04;4.95;;;1.30;;
71637;SDS011;59485;43.542;-5.676;2022-12-10T15:07:55;6.80;;;1.85;;
71637;SDS011;59485;43.542;-5.676;2022-12-10T15:10:33;6.18;;;1.35;;
71637;SDS011;59485;43.542;-5.676;2022-12-10T15:13:01;4.77;;;1.37;;
71637;SDS011;59485;43.542;-5.676;2022-12-10T15:18:00;3.97;;;0.90;;
71637;SDS011;59485;43.542;-5.676;2022-12-10T15:20:36;5.35;;;0.98;;
71637;SDS011;59485;43.542;-5.676;2022-12-10T15:28:41;4.88;;;1.13;;
71637;SDS011;59485;43.542;-5.676;2022-12-10T15:31:10;6.40;;;1.20;;
71637;SDS011;59485;43.542;-5.676;2022-12-10T15:33:38;5.57;;;1.17;;
71637;SDS011;59485;43.542;-5.676;2022-12-10T15:36:04;4.38;;;1.23;;
71637;SDS011;59485;43.542;-5.676;2022-12-10T15:38:30;5.10;;;1.47;;
71637;SDS011;59485;43.542;-5.676;2022-12-10T15:41:20;5.78;;;1.63;;
71637;SDS011;59485;43.542;-5.676;2022-12-10T15:43:58;4.45;;;1.40;;
71637;SDS011;59485;43.542;-5.676;2022-12-10T15:46:27;5.25;;;1.27;;
71637;SDS011;59485;43.542;-5.676;2022-12-10T15:48:53;4.20;;;1.07;;
71637;SDS011;59485;43.542;-5.676;2022-12-10T15:51:18;3.80;;;1.10;;
71637;SDS011;59485;43.542;-5.676;2022-12-10T15:53:44;4.60;;;1.30;;
71637;SDS011;59485;43.542;-5.676;2022-12-10T15:56:10;13.55;;;1.80;;
71637;SDS011;59485;43.542;-5.676;2022-12-10T15:58:35;12.23;;;1.50;;
71637;SDS011;59485;43.542;-5.676;2022-12-10T16:01:01;4.67;;;1.23;;
71637;SDS011;59485;43.542;-5.676;2022-12-10T16:03:27;8.10;;;1.67;;
71637;SDS011;59485;43.542;-5.676;2022-12-10T16:05:53;4.72;;;1.65;;
71637;SDS011;59485;43.542;-5.676;2022-12-10T16:10:52;4.95;;;1.77;;
71637;SDS011;59485;43.542;-5.676;2022-12-10T16:13:30;6.18;;;1.83;;
71637;SDS011;59485;43.542;-5.676;2022-12-10T16:16:00;6.07;;;1.77;;
71637;SDS011;59485;43.542;-5.676;2022-12-10T16:18:33;9.60;;;1.60;;
71637;SDS011;59485;43.542;-5.676;2022-12-10T16:21:02;9.70;;;2.00;;
71637;SDS011;59485;43.542;-5.676;2022-12-10T16:23:28;5.45;;;1.40;;
71637;SDS011;59485;43.542;-5.676;2022-12-10T16:25:54;6.63;;;2.83;;
71637;SDS011;59485;43.542;-5.676;2022-12-10T16:28:21;5.77;;;1.80;;
71637;SDS011;59485;43.542;-5.676;2022-12-10T16:30:48;5.93;;;1.65;;
71637;SDS011;59485;43.542;-5.676;2022-12-10T16:33:19;5.53;;;2.00;;
71637;SDS011;59485;43.542;-5.676;2022-12-10T16:35:46;6.43;;;1.77;;
71637;SDS011;59485;43.542;-5.676;2022-12-10T16:38:16;8.75;;;1.85;;
71637;SDS011;59485;43.542;-5.676;2022-12-10T16:40:42;8.05;;;2.00;;
71637;SDS011;59485;43.542;-5.676;2022-12-10T16:43:12;6.57;;;2.08;;
71637;SDS011;59485;43.542;-5.676;2022-12-10T16:45:40;6.72;;;3.15;;
71637;SDS011;59485;43.542;-5.676;2022-12-10T16:48:06;5.83;;;1.43;;
71637;SDS011;59485;43.542;-5.676;2022-12-10T16:50:32;10.32;;;2.28;;
71637;SDS011;59485;43.542;-5.676;2022-12-10T16:52:57;9.30;;;2.30;;
71637;SDS011;59485;43.542;-5.676;2022-12-10T16:55:28;9.20;;;2.33;;